Time;durP1;ratioP1;P1;durP2;ratioP2;P2;SDS_P1;SDS_P2;PMS_P1;PMS_P2;Temp;Humidity;BMP_temperature;BMP_pressure;BME280_temperature;BME280_humidity;BME280_pressure;Samples;Min_cycle;Max_cycle;Signal;HPM_P1;HPM_P2
2023/02/06 00:00:23;;;;;;;22.35;15.32;;;;;;;4.84;100.00;102643.59;5045498;28;20204;-74
2023/02/06 00:02:50;;;;;;;19.55;13.50;;;;;;;4.86;100.00;102648.91;5047562;28;20251;-75
2023/02/06 00:05:18;;;;;;;23.17;15.52;;;;;;;4.81;100.00;102647.06;5047779;28;20272;-75
2023/02/06 00:07:45;;;;;;;17.95;14.43;;;;;;;4.77;100.00;102645.25;5043687;28;20205;-75
2023/02/06 00:10:13;;;;;;;18.65;14.43;;;;;;;4.65;100.00;102639.72;5045639;28;20201;-76
2023/02/06 00:12:40;;;;;;;25.58;15.95;;;;;;;4.60;100.00;102645.00;5046138;28;20251;-75
2023/02/06 00:15:07;;;;;;;19.55;15.00;;;;;;;4.61;100.00;102635.22;5047725;28;20201;-74
2023/02/06 00:17:35;;;;;;;18.23;14.18;;;;;;;4.50;100.00;102643.09;5046160;28;20208;-74
2023/02/06 00:20:01;;;;;;;18.95;14.93;;;;;;;4.51;100.00;102651.97;5041923;28;20213;-74
2023/02/06 00:22:29;;;;;;;18.92;15.02;;;;;;;4.38;100.00;102653.53;5038468;28;20346;-76
2023/02/06 00:24:56;;;;;;;22.83;15.27;;;;;;;4.40;100.00;102649.13;5040816;28;20208;-74
2023/02/06 00:27:23;;;;;;;18.55;14.20;;;;;;;4.44;100.00;102645.66;5040783;28;20237;-74
2023/02/06 00:29:49;;;;;;;20.48;13.80;;;;;;;4.33;100.00;102648.13;5040585;28;20235;-74
2023/02/06 00:32:16;;;;;;;16.65;13.05;;;;;;;4.33;100.00;102648.13;5040408;28;20223;-75
2023/02/06 00:34:43;;;;;;;20.67;12.80;;;;;;;4.47;100.00;102650.13;5040682;28;20581;-74
2023/02/06 00:37:09;;;;;;;18.30;14.52;;;;;;;4.42;100.00;102658.06;5040664;28;20235;-75
2023/02/06 00:39:37;;;;;;;19.80;14.10;;;;;;;4.43;100.00;102659.84;5041199;28;20644;-77
2023/02/06 00:42:04;;;;;;;19.13;13.65;;;;;;;4.42;100.00;102667.84;5063806;22;20648;-74
2023/02/06 00:44:30;;;;;;;18.60;13.90;;;;;;;4.46;100.00;102669.69;5040199;28;20214;-73
2023/02/06 00:46:57;;;;;;;16.42;13.23;;;;;;;4.50;100.00;102668.84;5040625;28;20230;-73
2023/02/06 00:49:24;;;;;;;18.15;15.30;;;;;;;4.43;100.00;102672.28;5043020;28;20201;-76
2023/02/06 00:51:51;;;;;;;16.67;13.10;;;;;;;4.48;100.00;102667.97;5040415;28;20223;-73
2023/02/06 00:54:19;;;;;;;17.45;12.88;;;;;;;4.49;100.00;102675.06;5039448;28;20200;-74
2023/02/06 00:56:47;;;;;;;19.55;14.27;;;;;;;4.49;100.00;102673.28;5036670;28;20686;-74
2023/02/06 00:59:14;;;;;;;20.50;14.23;;;;;;;4.51;100.00;102673.31;5036113;28;20681;-74
2023/02/06 01:01:41;;;;;;;18.50;12.52;;;;;;;4.50;100.00;102685.78;5037042;28;20200;-74
2023/02/06 01:04:07;;;;;;;19.98;13.75;;;;;;;4.49;100.00;102683.97;5035963;28;20359;-74
2023/02/06 01:06:34;;;;;;;19.17;13.57;;;;;;;4.59;100.00;102682.38;5038603;28;20208;-73
2023/02/06 01:09:00;;;;;;;18.70;13.38;;;;;;;4.56;100.00;102683.19;5042905;28;20231;-73
2023/02/06 01:11:27;;;;;;;19.00;13.60;;;;;;;4.58;100.00;102692.13;5038785;28;20800;-73
2023/02/06 01:13:55;;;;;;;19.00;14.25;;;;;;;4.62;100.00;102687.75;5039275;28;20278;-73
2023/02/06 01:16:24;;;;;;;17.10;12.50;;;;;;;4.63;100.00;102686.84;5035204;28;20201;-74
2023/02/06 01:18:50;;;;;;;20.80;13.60;;;;;;;4.68;100.00;102687.84;5037302;28;20211;-74
2023/02/06 01:21:20;;;;;;;20.10;13.70;;;;;;;4.67;100.00;102683.38;5036721;28;20214;-73
2023/02/06 01:23:47;;;;;;;18.70;13.93;;;;;;;4.64;100.00;102686.00;5035307;28;20275;-73
2023/02/06 01:26:16;;;;;;;20.10;12.77;;;;;;;4.68;100.00;102698.53;5035704;28;20662;-73
2023/02/06 01:28:45;;;;;;;17.27;13.30;;;;;;;4.71;100.00;102684.31;5035191;28;20205;-74
2023/02/06 01:31:16;;;;;;;18.77;13.73;;;;;;;4.65;100.00;102679.78;5035431;28;20227;-73
2023/02/06 01:33:43;;;;;;;20.52;13.98;;;;;;;4.65;100.00;102686.88;5035348;28;20225;-74
2023/02/06 01:36:11;;;;;;;17.10;13.13;;;;;;;4.62;100.00;102686.84;5035239;28;20290;-74
2023/02/06 01:38:38;;;;;;;16.17;13.07;;;;;;;4.63;100.00;102683.28;5034394;28;20210;-74
2023/02/06 01:41:06;;;;;;;16.98;13.13;;;;;;;4.66;100.00;102675.31;5035579;28;20619;-73
2023/02/06 01:43:35;;;;;;;16.23;11.75;;;;;;;4.58;100.00;102680.56;5035373;28;20228;-74
2023/02/06 01:46:01;;;;;;;15.23;11.18;;;;;;;4.58;100.00;102685.88;5017912;28;20210;-74
2023/02/06 01:48:35;;;;;;;13.60;11.30;;;;;;;4.59;100.00;102685.03;5034877;28;20204;-73
2023/02/06 01:51:04;;;;;;;14.27;11.13;;;;;;;4.58;100.00;102678.78;5035168;28;20213;-75
2023/02/06 01:53:32;;;;;;;16.13;11.00;;;;;;;4.63;100.00;102678.84;5035419;28;20220;-73
2023/02/06 01:56:01;;;;;;;14.57;10.85;;;;;;;4.64;100.00;102685.09;5034567;28;20585;-74
2023/02/06 01:58:31;;;;;;;15.27;10.98;;;;;;;4.68;100.00;102687.84;5034236;28;20192;-73
2023/02/06 02:00:59;;;;;;;13.88;10.95;;;;;;;4.71;100.00;102676.31;5034957;28;20212;-74
2023/02/06 02:03:27;;;;;;;15.65;11.02;;;;;;;4.72;100.00;102670.09;5035718;28;20273;-73
2023/02/06 02:05:59;;;;;;;14.90;10.25;;;;;;;4.67;100.00;102670.00;5034679;28;20222;-73
2023/02/06 02:08:32;;;;;;;14.75;9.85;;;;;;;4.61;100.00;102669.91;5036830;28;20189;-74
2023/02/06 02:11:00;;;;;;;15.68;11.68;;;;;;;4.46;100.00;102667.03;5041391;28;20208;-73
2023/02/06 02:13:26;;;;;;;15.63;12.10;;;;;;;4.43;100.00;102674.97;5039347;28;20227;-73
2023/02/06 02:16:03;;;;;;;19.42;12.30;;;;;;;4.47;100.00;102669.69;5038608;28;20205;-72
2023/02/06 02:18:55;;;;;;;15.23;11.52;;;;;;;4.47;100.00;102666.13;5037927;28;20682;-73
2023/02/06 02:21:58;;;;;;;14.07;10.60;;;;;;;4.46;100.00;102664.34;5037614;28;20195;-74
2023/02/06 02:24:39;;;;;;;16.42;11.32;;;;;;;4.42;100.00;102663.41;5036875;28;20584;-74
2023/02/06 02:27:27;;;;;;;17.02;11.57;;;;;;;4.45;100.00;102662.53;5036037;28;20196;-73
2023/02/06 02:30:33;;;;;;;15.88;10.98;;;;;;;4.43;100.00;102656.28;5036190;28;20696;-74
2023/02/06 02:33:25;;;;;;;14.43;10.88;;;;;;;4.44;100.00;102655.44;5034983;28;20233;-74
2023/02/06 02:36:00;;;;;;;16.48;11.10;;;;;;;4.37;100.00;102651.75;5035625;28;20197;-74
2023/02/06 02:38:36;;;;;;;15.52;10.52;;;;;;;4.43;100.00;102659.84;5036442;28;20188;-75
2023/02/06 02:41:10;;;;;;;14.27;10.48;;;;;;;4.39;100.00;102658.91;5038586;28;20188;-74
2023/02/06 02:43:43;;;;;;;17.77;11.57;;;;;;;4.39;100.00;102648.25;5039279;28;20236;-74
2023/02/06 02:46:17;;;;;;;17.13;11.43;;;;;;;4.38;100.00;102645.53;5037174;28;20186;-73
2023/02/06 02:48:47;;;;;;;15.60;10.68;;;;;;;4.31;100.00;102643.66;5035057;28;20183;-75
2023/02/06 02:51:16;;;;;;;17.98;10.52;;;;;;;4.25;100.00;102638.19;5035334;28;20234;-73
2023/02/06 02:53:42;;;;;;;15.18;10.65;;;;;;;4.33;100.00;102648.13;5035656;28;20246;-74
2023/02/06 02:56:16;;;;;;;18.15;10.55;;;;;;;4.23;100.00;102651.53;5034797;28;20209;-74
2023/02/06 02:58:44;;;;;;;13.05;10.20;;;;;;;4.13;100.00;102650.47;5033607;28;20254;-76
2023/02/06 03:01:16;;;;;;;13.80;10.43;;;;;;;4.15;100.00;102651.38;5034065;28;20214;-74
2023/02/06 03:03:46;;;;;;;13.18;9.73;;;;;;;4.30;100.00;102655.22;5034127;28;20227;-74
2023/02/06 03:06:30;;;;;;;13.75;9.25;;;;;;;4.26;100.00;102662.25;5036471;28;20200;-73
2023/02/06 03:09:03;;;;;;;14.73;9.80;;;;;;;4.15;100.00;102663.84;5039162;28;20205;-73
2023/02/06 03:11:30;;;;;;;13.23;9.63;;;;;;;4.17;100.00;102672.75;5038897;28;20213;-74
2023/02/06 03:14:02;;;;;;;12.52;9.35;;;;;;;4.10;100.00;102673.53;5034797;28;20220;-73
2023/02/06 03:16:36;;;;;;;12.68;10.15;;;;;;;4.08;100.00;102677.94;5033848;28;20204;-74
2023/02/06 03:19:07;;;;;;;13.45;10.52;;;;;;;4.05;100.00;102678.78;5033192;28;20199;-73
2023/02/06 03:21:37;;;;;;;14.88;10.70;;;;;;;4.11;100.00;102681.53;5033675;28;20200;-73
2023/02/06 03:24:09;;;;;;;15.32;10.93;;;;;;;4.02;100.00;102677.81;5033132;28;20224;-74
2023/02/06 03:26:37;;;;;;;17.15;10.32;;;;;;;3.96;100.00;102675.97;5033943;28;20612;-73
2023/02/06 03:29:08;;;;;;;11.82;9.23;;;;;;;3.93;100.00;102673.22;5033003;28;20203;-72
2023/02/06 03:31:40;;;;;;;12.20;9.73;;;;;;;3.97;100.00;102677.75;5033619;28;20249;-74
2023/02/06 03:34:13;;;;;;;13.90;9.77;;;;;;;3.92;100.00;102672.31;5033284;28;20228;-74
2023/02/06 03:36:41;;;;;;;14.48;9.45;;;;;;;3.87;100.00;102666.00;5033252;28;20635;-73
2023/02/06 03:39:07;;;;;;;13.90;10.00;;;;;;;3.93;100.00;102667.88;5032907;28;20204;-73
2023/02/06 03:41:37;;;;;;;16.88;9.95;;;;;;;3.86;100.00;102673.97;5033530;28;20200;-74
2023/02/06 03:44:05;;;;;;;13.85;10.45;;;;;;;3.80;100.00;102664.13;5034087;28;20236;-74
2023/02/06 03:46:35;;;;;;;12.57;9.70;;;;;;;3.86;100.00;102676.66;5038422;28;20222;-75
2023/02/06 03:49:06;;;;;;;13.70;9.63;;;;;;;3.86;100.00;102677.53;5038136;28;20215;-74
2023/02/06 03:51:39;;;;;;;11.68;9.95;;;;;;;3.70;100.00;102670.13;5037586;28;20219;-73
2023/02/06 03:54:09;;;;;;;14.60;10.07;;;;;;;3.71;100.00;102671.94;5037780;28;20229;-75
2023/02/06 03:56:41;;;;;;;13.38;9.98;;;;;;;3.69;100.00;102679.00;5038857;28;20203;-74
2023/02/06 03:59:08;;;;;;;13.73;9.77;;;;;;;3.68;100.00;102679.84;5039150;28;20192;-74
2023/02/06 04:01:35;;;;;;;11.98;9.15;;;;;;;3.65;100.00;102666.47;5039465;28;20200;-74
2023/02/06 04:04:03;;;;;;;14.70;10.35;;;;;;;3.72;100.00;102669.28;5039544;28;20236;-74
2023/02/06 04:06:30;;;;;;;17.38;11.32;;;;;;;3.78;100.00;102683.59;5040361;28;20204;-73
2023/02/06 04:08:56;;;;;;;18.75;10.30;;;;;;;3.80;100.00;102677.44;5040431;28;20200;-73
2023/02/06 04:11:24;;;;;;;14.82;10.68;;;;;;;3.79;100.00;102682.72;5039947;28;20530;-74
2023/02/06 04:13:51;;;;;;;16.30;10.43;;;;;;;3.88;100.00;102678.47;5039478;28;20688;-73
2023/02/06 04:16:17;;;;;;;14.35;10.63;;;;;;;3.81;100.00;102667.66;5039113;28;20592;-74
2023/02/06 04:18:44;;;;;;;15.05;10.32;;;;;;;3.74;100.00;102664.00;5039716;28;20200;-76
2023/02/06 04:21:10;;;;;;;14.70;10.43;;;;;;;3.81;100.00;102662.34;5047865;28;20204;-73
2023/02/06 04:23:37;;;;;;;12.80;9.90;;;;;;;3.84;100.00;102667.72;5045515;28;20223;-73
2023/02/06 04:26:03;;;;;;;15.15;10.48;;;;;;;3.75;100.00;102665.75;5048466;28;20215;-74
2023/02/06 04:28:31;;;;;;;20.75;11.55;;;;;;;3.87;100.00;102674.00;5051631;28;20208;-73
2023/02/06 04:30:59;;;;;;;14.93;11.23;;;;;;;3.95;100.00;102675.03;5058181;28;20211;-73
2023/02/06 04:33:26;;;;;;;14.35;10.27;;;;;;;3.96;100.00;102676.84;5058497;28;20252;-75
2023/02/06 04:35:52;;;;;;;12.50;9.60;;;;;;;3.95;100.00;102679.47;5058836;28;20204;-75
2023/02/06 04:38:19;;;;;;;13.10;9.77;;;;;;;3.96;100.00;102682.19;5058461;28;20281;-75
2023/02/06 04:40:45;;;;;;;14.80;11.70;;;;;;;3.90;100.00;102683.84;5058970;28;20180;-76
2023/02/06 04:43:12;;;;;;;14.38;10.65;;;;;;;3.90;100.00;102683.84;5058624;28;20248;-75
2023/02/06 04:45:40;;;;;;;14.55;10.60;;;;;;;3.87;100.00;102681.13;5058922;28;20193;-75
2023/02/06 04:48:07;;;;;;;14.02;10.15;;;;;;;3.90;100.00;102668.72;5058359;28;20220;-74
2023/02/06 04:50:33;;;;;;;23.80;15.50;;;;;;;3.94;100.00;102673.25;5058767;28;20193;-73
2023/02/06 04:53:00;;;;;;;24.23;17.42;;;;;;;3.87;100.00;102673.13;5046182;28;20227;-74
2023/02/06 04:55:27;;;;;;;23.55;15.52;;;;;;;3.88;100.00;102675.78;5040967;28;20212;-73
2023/02/06 04:57:53;;;;;;;21.10;12.40;;;;;;;3.95;100.00;102676.81;5039038;28;20287;-74
2023/02/06 05:00:20;;;;;;;16.75;11.05;;;;;;;3.91;100.00;102677.63;5046893;28;20204;-75
2023/02/06 05:02:47;;;;;;;19.58;11.48;;;;;;;3.81;100.00;102673.88;5038991;28;20241;-75
2023/02/06 05:05:14;;;;;;;17.80;12.63;;;;;;;3.84;100.00;102681.03;5042954;28;20218;-74
2023/02/06 05:07:41;;;;;;;26.20;16.15;;;;;;;3.88;100.00;102681.13;5038955;28;20291;-75
2023/02/06 05:10:08;;;;;;;21.30;14.05;;;;;;;3.89;100.00;102682.94;5035853;28;20593;-74
2023/02/06 05:12:35;;;;;;;19.27;12.82;;;;;;;3.92;100.00;102685.66;5035308;28;20320;-74
2023/02/06 05:15:02;;;;;;;15.35;10.60;;;;;;;3.98;100.00;102682.22;5035099;28;20219;-74
2023/02/06 05:17:28;;;;;;;17.88;11.25;;;;;;;4.00;100.00;102680.44;5035418;28;20204;-74
2023/02/06 05:19:56;;;;;;;18.70;11.60;;;;;;;3.87;100.00;102684.69;5035980;28;20203;-73
2023/02/06 05:22:23;;;;;;;25.45;15.30;;;;;;;3.92;100.00;102684.75;5035475;28;20223;-73
2023/02/06 05:24:49;;;;;;;16.60;11.57;;;;;;;3.98;100.00;102690.22;5035668;28;20204;-74
2023/02/06 05:27:16;;;;;;;17.63;12.23;;;;;;;3.99;100.00;102693.78;5036448;28;20581;-74
2023/02/06 05:29:42;;;;;;;15.95;11.18;;;;;;;4.01;100.00;102694.72;5035104;28;20678;-72
2023/02/06 05:32:09;;;;;;;16.92;10.63;;;;;;;4.04;100.00;102684.09;5034869;28;20234;-74
2023/02/06 05:34:36;;;;;;;20.80;11.15;;;;;;;4.08;100.00;102685.94;5035401;28;20204;-75
2023/02/06 05:37:03;;;;;;;16.05;11.38;;;;;;;4.09;100.00;102687.72;5035168;28;20589;-74
2023/02/06 05:39:30;;;;;;;15.88;11.23;;;;;;;4.07;100.00;102685.06;5018078;28;20211;-75
2023/02/06 05:41:56;;;;;;;14.43;11.18;;;;;;;4.00;100.00;102682.22;5024760;28;20641;-76
2023/02/06 05:44:23;;;;;;;14.07;10.75;;;;;;;3.83;100.00;102681.94;5039246;28;20286;-75
2023/02/06 05:46:50;;;;;;;16.40;11.80;;;;;;;3.90;100.00;102681.16;5038277;28;20581;-74
2023/02/06 05:49:16;;;;;;;15.82;10.85;;;;;;;3.80;100.00;102681.84;5037124;28;20209;-75
2023/02/06 05:51:43;;;;;;;21.60;14.38;;;;;;;3.81;100.00;102689.88;5036084;28;20213;-75
2023/02/06 05:54:12;;;;;;;20.95;12.73;;;;;;;3.69;100.00;102692.31;5036501;28;20227;-74
2023/02/06 05:56:38;;;;;;;20.20;12.88;;;;;;;3.68;100.00;102683.41;5036858;28;20215;-74
2023/02/06 05:59:05;;;;;;;16.23;12.25;;;;;;;3.66;100.00;102677.16;5046154;28;20308;-74
2023/02/06 06:01:31;;;;;;;17.05;12.00;;;;;;;3.62;100.00;102680.66;5039493;28;20232;-74
2023/02/06 06:03:58;;;;;;;19.42;12.95;;;;;;;3.70;100.00;102678.13;5037314;28;20326;-74
2023/02/06 06:06:25;;;;;;;18.73;12.55;;;;;;;3.63;100.00;102671.78;5038859;28;20199;-75
2023/02/06 06:08:52;;;;;;;15.90;11.40;;;;;;;3.73;100.00;102656.84;5023779;28;20214;-74
2023/02/06 06:11:20;;;;;;;19.73;12.15;;;;;;;3.63;100.00;102666.44;5039832;28;20297;-75
2023/02/06 06:13:46;;;;;;;17.58;12.65;;;;;;;3.67;100.00;102664.75;5037458;28;20319;-75
2023/02/06 06:16:13;;;;;;;15.90;11.65;;;;;;;3.75;100.00;102660.44;5036920;28;20531;-74
2023/02/06 06:18:40;;;;;;;23.15;13.07;;;;;;;3.64;100.00;102656.66;5035393;28;20205;-74
2023/02/06 06:21:06;;;;;;;20.05;12.45;;;;;;;3.53;100.00;102660.03;5038414;28;20204;-73
2023/02/06 06:23:33;;;;;;;17.02;11.85;;;;;;;3.55;100.00;102650.31;5027324;28;20213;-73
2023/02/06 06:25:59;;;;;;;33.55;19.30;;;;;;;3.65;100.00;102651.38;5026638;28;20210;-78
2023/02/06 06:28:27;;;;;;;22.48;14.63;;;;;;;3.67;100.00;102649.66;5038833;28;20208;-76
2023/02/06 06:31:00;;;;;;;19.35;12.68;;;;;;;3.63;100.00;102647.78;5049167;28;20203;-77
2023/02/06 06:33:26;;;;;;;25.30;15.50;;;;;;;3.73;100.00;102654.19;5046619;28;20243;-78
2023/02/06 06:35:53;;;;;;;21.20;13.68;;;;;;;3.74;100.00;102666.66;5039480;28;20204;-77
2023/02/06 06:38:20;;;;;;;38.88;23.45;;;;;;;3.74;100.00;102666.66;5038623;28;20203;-78
2023/02/06 06:40:46;;;;;;;26.00;16.92;;;;;;;3.71;100.00;102669.28;5032609;28;20219;-77
2023/02/06 06:43:12;;;;;;;21.42;12.93;;;;;;;3.62;100.00;102671.72;5039167;28;20228;-79
2023/02/06 06:45:40;;;;;;;19.55;13.63;;;;;;;3.53;100.00;102681.34;5029665;28;20294;-77
2023/02/06 06:48:07;;;;;;;19.75;12.43;;;;;;;3.61;100.00;102686.81;5043959;28;20264;-77
2023/02/06 06:50:34;;;;;;;16.85;11.30;;;;;;;3.64;100.00;102670.00;5026311;28;20197;-75
2023/02/06 06:53:00;;;;;;;17.00;12.23;;;;;;;3.52;100.00;102676.00;5026264;28;20233;-76
2023/02/06 06:55:27;;;;;;;18.20;12.32;;;;;;;3.61;100.00;102678.84;5034602;28;20203;-78
2023/02/06 06:57:54;;;;;;;19.80;12.10;;;;;;;3.68;100.00;102679.84;5038051;28;20232;-76
2023/02/06 07:00:21;;;;;;;20.02;12.98;;;;;;;3.55;100.00;102682.28;5038087;28;20476;-76
2023/02/06 07:02:49;;;;;;;18.92;13.05;;;;;;;3.62;100.00;102687.72;5034472;28;20212;-76
2023/02/06 07:05:15;;;;;;;24.70;13.65;;;;;;;3.64;100.00;102684.25;5034401;28;20297;-75
2023/02/06 07:07:42;;;;;;;20.38;11.85;;;;;;;3.66;100.00;102685.13;5025485;28;20299;-75
2023/02/06 07:10:09;;;;;;;24.77;13.32;;;;;;;3.74;100.00;102682.66;5023665;28;20227;-77
2023/02/06 07:12:36;;;;;;;21.30;12.52;;;;;;;3.63;100.00;102681.53;5018501;28;20228;-76
2023/02/06 07:15:02;;;;;;;21.08;12.57;;;;;;;3.63;100.00;102681.53;5023023;28;20215;-76
2023/02/06 07:17:29;;;;;;;21.50;13.38;;;;;;;3.54;100.00;102684.91;5024997;28;20233;-76
2023/02/06 07:19:58;;;;;;;22.58;13.80;;;;;;;3.59;100.00;102682.34;5028882;28;20264;-76
2023/02/06 07:22:25;;;;;;;17.90;11.55;;;;;;;3.64;100.00;102683.31;5048808;28;20248;-76
2023/02/06 07:24:52;;;;;;;21.75;12.77;;;;;;;3.65;100.00;102694.03;5054239;28;20687;-77
2023/02/06 07:27:19;;;;;;;17.80;11.65;;;;;;;3.75;100.00;102680.03;5046739;28;20205;-74
2023/02/06 07:29:45;;;;;;;18.40;11.57;;;;;;;3.64;100.00;102680.66;5046680;28;20200;-69
2023/02/06 07:32:12;;;;;;;21.88;13.88;;;;;;;3.82;100.00;102689.03;5043306;28;20237;-71
2023/02/06 07:34:39;;;;;;;21.05;13.05;;;;;;;3.83;100.00;102692.59;5040651;28;20229;-70
2023/02/06 07:37:07;;;;;;;21.02;12.50;;;;;;;3.86;100.00;102690.88;5040844;28;20209;-75
2023/02/06 07:39:34;;;;;;;111.43;66.80;;;;;;;4.04;100.00;102687.63;5039398;28;20211;-68
2023/02/06 07:42:00;;;;;;;48.15;29.17;;;;;;;4.07;100.00;102678.78;5041508;28;20204;-74
2023/02/06 07:44:28;;;;;;;29.00;18.30;;;;;;;4.22;100.00;102675.50;5042128;28;20228;-75
2023/02/06 07:46:55;;;;;;;20.40;13.32;;;;;;;4.30;100.00;102679.22;5039601;28;20236;-74
2023/02/06 07:49:22;;;;;;;14.05;10.95;;;;;;;4.32;100.00;102677.44;5037639;28;20210;-74
2023/02/06 07:51:49;;;;;;;17.88;10.73;;;;;;;4.34;100.00;102673.97;5038347;28;20227;-73
2023/02/06 07:54:17;;;;;;;18.17;11.15;;;;;;;4.49;100.00;102673.28;5038743;28;20565;-74
2023/02/06 07:56:43;;;;;;;16.00;10.90;;;;;;;4.73;100.00;102670.13;5042465;28;20299;-75
2023/02/06 07:59:10;;;;;;;15.85;10.65;;;;;;;4.84;100.00;102674.69;5024358;28;20213;-74
2023/02/06 08:01:37;;;;;;;19.08;12.38;;;;;;;5.10;100.00;102672.41;5020846;28;20205;-74
2023/02/06 08:04:03;;;;;;;13.32;8.57;;;;;;;5.33;100.00;102672.72;5021639;28;20224;-73
2023/02/06 08:06:30;;;;;;;6.45;4.43;;;;;;;5.69;100.00;102688.28;5021796;28;20271;-74
2023/02/06 08:08:57;;;;;;;8.15;4.10;;;;;;;5.91;100.00;102686.75;5021255;28;20192;-73
2023/02/06 08:11:28;;;;;;;8.73;4.65;;;;;;;6.01;100.00;102694.00;5018947;28;20202;-74
2023/02/06 08:13:55;;;;;;;5.30;3.25;;;;;;;5.58;100.00;102696.19;5019829;28;20232;-72
2023/02/06 08:16:23;;;;;;;9.95;3.80;;;;;;;5.43;100.00;102688.00;5022130;28;20275;-73
2023/02/06 08:18:50;;;;;;;5.82;4.50;;;;;;;5.20;100.00;102685.00;5019840;28;20205;-73
2023/02/06 08:21:19;;;;;;;10.45;3.70;;;;;;;5.06;100.00;102676.81;5018857;28;20225;-73
2023/02/06 08:23:46;;;;;;;69.45;41.97;;;;;;;5.31;100.00;102682.47;5020732;28;20316;-72
2023/02/06 08:26:15;;;;;;;29.80;16.90;;;;;;;5.77;100.00;102675.91;5016630;28;20296;-73
2023/02/06 08:28:45;;;;;;;9.35;6.00;;;;;;;6.24;100.00;102679.94;5017270;28;20209;-73
2023/02/06 08:31:14;;;;;;;13.07;4.10;;;;;;;7.29;100.00;102674.41;5016212;28;20211;-73
2023/02/06 08:33:41;;;;;;;6.00;3.70;;;;;;;8.88;100.00;102669.25;5016781;28;20476;-74
2023/02/06 08:36:09;;;;;;;8.88;3.97;;;;;;;10.13;100.00;102664.19;5015971;28;20216;-74
2023/02/06 08:38:36;;;;;;;4.60;3.25;;;;;;;11.35;100.00;102667.50;5019485;28;20206;-75
2023/02/06 08:41:03;;;;;;;5.50;3.45;;;;;;;12.46;89.37;102663.19;5020825;28;20202;-75
2023/02/06 08:43:29;;;;;;;4.20;3.25;;;;;;;13.38;77.84;102668.69;5020808;28;20261;-74
2023/02/06 08:45:58;;;;;;;7.15;4.28;;;;;;;13.52;68.98;102670.19;5017256;28;20202;-72
2023/02/06 08:48:25;;;;;;;8.27;5.53;;;;;;;13.67;67.34;102671.63;5016495;28;20684;-72
2023/02/06 08:51:01;;;;;;;10.43;7.80;;;;;;;14.42;61.01;102666.25;5017514;28;20191;-74
2023/02/06 08:53:28;;;;;;;6.45;3.10;;;;;;;14.39;61.33;102664.50;5016648;28;20226;-73
2023/02/06 08:55:58;;;;;;;3.72;2.70;;;;;;;14.21;59.18;102667.69;5016256;28;20200;-74
2023/02/06 08:58:25;;;;;;;5.22;2.70;;;;;;;14.02;61.40;102669.97;5014957;28;20661;-73
2023/02/06 09:00:52;;;;;;;4.30;2.90;;;;;;;14.30;59.92;102667.44;5015562;28;20230;-74
2023/02/06 09:03:21;;;;;;;3.63;2.55;;;;;;;13.19;61.44;102665.44;5015823;28;20230;-74
2023/02/06 09:05:48;;;;;;;5.00;3.10;;;;;;;11.54;78.63;102656.47;5016132;28;20223;-74
2023/02/06 09:08:15;;;;;;;4.65;3.45;;;;;;;11.07;83.37;102650.75;5018502;28;20199;-75
2023/02/06 09:10:41;;;;;;;4.97;3.20;;;;;;;11.14;85.24;102651.56;5019073;28;20207;-75
2023/02/06 09:13:08;;;;;;;4.50;3.10;;;;;;;12.77;72.48;102660.81;5017869;28;20230;-75
2023/02/06 09:15:35;;;;;;;6.05;3.13;;;;;;;13.70;60.03;102659.84;5015455;28;20214;-74
2023/02/06 09:18:01;;;;;;;8.57;2.95;;;;;;;14.03;56.80;102657.28;5014992;28;20203;-74
2023/02/06 09:20:29;;;;;;;6.85;2.85;;;;;;;14.68;53.65;102646.63;5015231;28;20535;-73
2023/02/06 09:22:56;;;;;;;3.38;2.42;;;;;;;15.49;49.94;102651.56;5015867;28;20792;-74
2023/02/06 09:25:22;;;;;;;3.28;2.85;;;;;;;16.10;48.21;102654.22;5014903;28;20209;-74
2023/02/06 09:27:49;;;;;;;3.92;3.42;;;;;;;16.32;46.91;102651.63;5015028;28;20204;-74
2023/02/06 09:30:15;;;;;;;4.38;3.38;;;;;;;14.19;49.72;102658.69;5015640;28;20664;-73
2023/02/06 09:32:43;;;;;;;5.70;3.95;;;;;;;14.02;51.31;102666.34;5015154;28;20239;-73
2023/02/06 09:35:09;;;;;;;3.95;3.55;;;;;;;14.82;48.77;102664.34;5015207;28;20231;-73
2023/02/06 09:37:39;;;;;;;4.35;3.30;;;;;;;14.68;48.61;102662.91;5014968;28;20206;-74
2023/02/06 09:40:08;;;;;;;6.90;3.42;;;;;;;14.13;50.35;102672.38;5015443;28;20683;-74
2023/02/06 09:42:38;;;;;;;8.77;5.50;;;;;;;15.03;48.57;102650.19;5014217;28;20236;-74
2023/02/06 09:45:11;;;;;;;6.20;4.10;;;;;;;14.62;48.35;102654.91;5017580;28;20189;-74
2023/02/06 09:47:41;;;;;;;5.57;3.60;;;;;;;16.20;45.52;102646.63;5006526;28;20212;-73
2023/02/06 09:50:30;;;;;;;5.20;3.90;;;;;;;15.97;44.96;102651.00;5017074;28;20208;-74
2023/02/06 09:53:10;;;;;;;6.50;4.47;;;;;;;15.58;45.32;102647.66;5016902;28;20522;-74
2023/02/06 09:55:40;;;;;;;7.85;4.18;;;;;;;15.79;45.25;102655.19;5016166;28;20943;-74
2023/02/06 09:58:19;;;;;;;6.33;3.50;;;;;;;16.13;43.64;102659.53;5015831;28;20197;-74
2023/02/06 10:00:51;;;;;;;5.60;3.60;;;;;;;16.25;43.34;102652.78;5016602;28;20471;-73
2023/02/06 10:03:29;;;;;;;5.77;3.20;;;;;;;14.88;46.89;102645.16;5015690;28;21011;-73
2023/02/06 10:06:07;;;;;;;4.63;3.42;;;;;;;13.60;50.65;102637.50;5015072;28;20431;-73
2023/02/06 10:08:40;;;;;;;4.47;3.67;;;;;;;14.21;48.82;102634.28;5014373;28;20198;-73
2023/02/06 10:11:14;;;;;;;5.80;3.20;;;;;;;14.64;47.24;102633.19;5014260;28;20218;-73
2023/02/06 10:13:48;;;;;;;3.88;3.47;;;;;;;14.79;46.59;102627.34;5014153;28;20736;-75
2023/02/06 10:16:27;;;;;;;6.50;3.75;;;;;;;15.26;45.91;102627.78;4996460;28;20208;-74
2023/02/06 10:18:58;;;;;;;4.60;2.83;;;;;;;15.35;45.30;102623.91;5014238;28;20577;-74
2023/02/06 10:21:31;;;;;;;4.55;2.97;;;;;;;15.90;44.02;102619.53;5014908;28;20208;-72
2023/02/06 10:24:04;;;;;;;4.90;3.28;;;;;;;17.14;40.60;102621.56;5014315;28;20221;-74
2023/02/06 10:26:33;;;;;;;4.23;3.30;;;;;;;17.08;40.23;102609.97;5013983;28;20195;-74
2023/02/06 10:29:00;;;;;;;3.70;3.00;;;;;;;16.68;41.53;102603.22;5014915;28;20447;-75
2023/02/06 10:31:46;;;;;;;5.30;3.40;;;;;;;16.73;40.29;102608.50;5014413;28;20439;-74
2023/02/06 10:34:33;;;;;;;5.23;3.30;;;;;;;18.23;38.09;102619.97;5016007;28;20491;-74
2023/02/06 10:37:18;;;;;;;5.20;3.27;;;;;;;19.04;36.33;102619.16;5002028;28;20435;-73
2023/02/06 10:40:12;;;;;;;5.43;3.17;;;;;;;17.42;38.21;102610.50;5021124;28;20815;-74
2023/02/06 10:42:49;;;;;;;6.47;3.10;;;;;;;16.05;41.16;102597.28;5021314;28;20524;-74
2023/02/06 10:45:36;;;;;;;3.90;3.50;;;;;;;14.51;45.47;102591.91;5017383;28;20423;-73
2023/02/06 10:48:19;;;;;;;4.87;3.43;;;;;;;13.02;49.09;102596.31;5016751;28;20436;-73
2023/02/06 10:50:50;;;;;;;4.57;3.60;;;;;;;12.08;54.23;102594.47;5016203;28;20430;-73
2023/02/06 10:53:21;;;;;;;5.63;4.18;;;;;;;11.27;60.46;102591.16;5015138;28;20249;-77
2023/02/06 10:55:54;;;;;;;8.02;4.60;;;;;;;12.89;51.72;102575.88;5018141;28;20183;-73
2023/02/06 10:58:25;;;;;;;4.50;3.53;;;;;;;14.01;46.78;102578.75;5017315;28;20226;-73
2023/02/06 11:00:53;;;;;;;4.65;3.50;;;;;;;15.65;43.48;102575.94;5018415;28;20194;-73
2023/02/06 11:03:25;;;;;;;7.32;3.80;;;;;;;17.97;39.46;102574.69;5017938;28;20228;-73
2023/02/06 11:05:52;;;;;;;6.13;4.17;;;;;;;19.33;36.83;102565.88;5021257;28;20226;-73
2023/02/06 11:08:22;;;;;;;4.30;3.70;;;;;;;19.91;36.03;102572.19;5020975;28;20451;-73
2023/02/06 11:10:51;;;;;;;7.17;3.70;;;;;;;19.61;36.32;102570.00;5020470;28;20523;-74
2023/02/06 11:13:26;;;;;;;4.70;3.47;;;;;;;18.98;35.95;102566.66;5018744;28;20469;-74
2023/02/06 11:15:59;;;;;;;4.50;3.50;;;;;;;19.17;36.27;102562.06;5020944;28;20428;-73
2023/02/06 11:18:29;;;;;;;3.57;3.27;;;;;;;18.84;36.67;102562.72;5021180;28;20932;-73
2023/02/06 11:20:56;;;;;;;5.47;3.90;;;;;;;17.30;38.72;102555.56;5020228;28;20443;-73
2023/02/06 11:23:25;;;;;;;31.30;25.77;;;;;;;18.57;38.00;102553.91;5018215;28;20469;-70